sensor_id;sensor_type;location;lat;lon;timestamp;pressure;altitude;pressure_sealevel;temperature;humidity
63287;BME280;49410;55.708;37.522;2022-11-25T00:01:51;100111.84;;;-5.26;nan
63287;BME280;49410;55.708;37.522;2022-11-25T00:04:17;100113.22;;;-5.16;nan
63287;BME280;49410;55.708;37.522;2022-11-25T00:06:42;100117.56;;;-5.13;nan
63287;BME280;49410;55.708;37.522;2022-11-25T00:09:11;100119.00;;;-5.26;nan
63287;BME280;49410;55.708;37.522;2022-11-25T00:11:38;100108.25;;;-5.25;nan
63287;BME280;49410;55.708;37.522;2022-11-25T00:14:05;100120.13;;;-5.10;nan
63287;BME280;49410;55.708;37.522;2022-11-25T00:16:31;100119.09;;;-5.06;nan
63287;BME280;49410;55.708;37.522;2022-11-25T00:18:57;100124.44;;;-5.06;nan
63287;BME280;49410;55.708;37.522;2022-11-25T00:21:25;100115.69;;;-5.09;nan
63287;BME280;49410;55.708;37.522;2022-11-25T00:23:52;100115.53;;;-5.06;nan
63287;BME280;49410;55.708;37.522;2022-11-25T00:26:19;100131.44;;;-5.03;nan
63287;BME280;49410;55.708;37.522;2022-11-25T00:28:46;100111.09;;;-5.06;nan
63287;BME280;49410;55.708;37.522;2022-11-25T00:31:15;100136.69;;;-5.02;nan
63287;BME280;49410;55.708;37.522;2022-11-25T00:33:42;100128.84;;;-5.05;nan
63287;BME280;49410;55.708;37.522;2022-11-25T00:36:28;100142.03;;;-5.02;nan
63287;BME280;49410;55.708;37.522;2022-11-25T00:38:55;100133.25;;;-5.04;nan
63287;BME280;49410;55.708;37.522;2022-11-25T00:41:21;100145.41;;;-4.96;nan
63287;BME280;49410;55.708;37.522;2022-11-25T00:44:07;100142.56;;;-4.92;nan
63287;BME280;49410;55.708;37.522;2022-11-25T00:46:52;100132.09;;;-4.98;nan
63287;BME280;49410;55.708;37.522;2022-11-25T00:49:17;100143.66;;;-4.97;nan
63287;BME280;49410;55.708;37.522;2022-11-25T00:51:42;100122.06;;;-5.13;nan
63287;BME280;49410;55.708;37.522;2022-11-25T00:54:08;100139.53;;;-5.06;nan
63287;BME280;49410;55.708;37.522;2022-11-25T00:56:33;100136.03;;;-5.07;nan
63287;BME280;49410;55.708;37.522;2022-11-25T00:58:59;100121.41;;;-5.20;nan
63287;BME280;49410;55.708;37.522;2022-11-25T01:01:24;100129.41;;;-5.20;nan
63287;BME280;49410;55.708;37.522;2022-11-25T01:03:50;100146.59;;;-5.04;nan
63287;BME280;49410;55.708;37.522;2022-11-25T01:06:16;100128.31;;;-5.15;nan
63287;BME280;49410;55.708;37.522;2022-11-25T01:08:42;100143.75;;;-4.99;nan
63287;BME280;49410;55.708;37.522;2022-11-25T01:11:10;100148.63;;;-5.10;nan
63287;BME280;49410;55.708;37.522;2022-11-25T01:13:36;100137.13;;;-5.12;nan
63287;BME280;49410;55.708;37.522;2022-11-25T01:16:05;100149.06;;;-4.99;nan
63287;BME280;49410;55.708;37.522;2022-11-25T01:18:31;100136.13;;;-5.10;nan
63287;BME280;49410;55.708;37.522;2022-11-25T01:21:08;100134.16;;;-5.05;nan
63287;BME280;49410;55.708;37.522;2022-11-25T01:23:34;100147.81;;;-4.90;nan
63287;BME280;49410;55.708;37.522;2022-11-25T01:26:01;100154.50;;;-4.78;nan
63287;BME280;49410;55.708;37.522;2022-11-25T01:28:26;100143.47;;;-4.93;nan
63287;BME280;49410;55.708;37.522;2022-11-25T01:31:02;100160.97;;;-4.86;nan
63287;BME280;49410;55.708;37.522;2022-11-25T01:33:29;100149.63;;;-4.91;nan
63287;BME280;49410;55.708;37.522;2022-11-25T01:36:00;100159.25;;;-4.87;nan
63287;BME280;49410;55.708;37.522;2022-11-25T01:38:26;100153.16;;;-4.90;nan
63287;BME280;49410;55.708;37.522;2022-11-25T01:40:51;100161.06;;;-4.87;nan
63287;BME280;49410;55.708;37.522;2022-11-25T01:43:16;100165.94;;;-4.99;nan
63287;BME280;49410;55.708;37.522;2022-11-25T01:45:42;100170.34;;;-4.97;nan
63287;BME280;49410;55.708;37.522;2022-11-25T01:48:44;100167.59;;;-4.96;nan
63287;BME280;49410;55.708;37.522;2022-11-25T01:51:37;100161.63;;;-5.03;nan
63287;BME280;49410;55.708;37.522;2022-11-25T01:54:04;100170.88;;;-5.11;nan
63287;BME280;49410;55.708;37.522;2022-11-25T01:56:35;100171.69;;;-5.09;nan
63287;BME280;49410;55.708;37.522;2022-11-25T01:59:02;100153.41;;;-5.20;nan
63287;BME280;49410;55.708;37.522;2022-11-25T02:01:27;100170.91;;;-5.13;nan
63287;BME280;49410;55.708;37.522;2022-11-25T02:03:54;100172.84;;;-5.17;nan
63287;BME280;49410;55.708;37.522;2022-11-25T02:06:40;100167.56;;;-5.18;nan
63287;BME280;49410;55.708;37.522;2022-11-25T02:09:08;100175.69;;;-5.21;nan
63287;BME280;49410;55.708;37.522;2022-11-25T02:11:37;100172.34;;;-5.26;nan
63287;BME280;49410;55.708;37.522;2022-11-25T02:14:04;100154.94;;;-5.37;nan
63287;BME280;49410;55.708;37.522;2022-11-25T02:16:31;100170.00;;;-5.36;nan
63287;BME280;49410;55.708;37.522;2022-11-25T02:18:57;100175.03;;;-5.28;nan
63287;BME280;49410;55.708;37.522;2022-11-25T02:21:25;100160.03;;;-5.31;nan
63287;BME280;49410;55.708;37.522;2022-11-25T02:24:01;100171.28;;;-5.22;nan
63287;BME280;49410;55.708;37.522;2022-11-25T02:26:28;100154.69;;;-5.31;nan
63287;BME280;49410;55.708;37.522;2022-11-25T02:28:53;100162.06;;;-5.13;nan
63287;BME280;49410;55.708;37.522;2022-11-25T02:31:20;100153.53;;;-5.23;nan
63287;BME280;49410;55.708;37.522;2022-11-25T02:33:46;100164.56;;;-5.09;nan
63287;BME280;49410;55.708;37.522;2022-11-25T02:36:12;100167.16;;;-5.07;nan
63287;BME280;49410;55.708;37.522;2022-11-25T02:38:45;100161.50;;;-5.22;nan
63287;BME280;49410;55.708;37.522;2022-11-25T02:43:51;100175.16;;;-5.07;nan
63287;BME280;49410;55.708;37.522;2022-11-25T02:46:19;100178.34;;;-4.97;nan
63287;BME280;49410;55.708;37.522;2022-11-25T02:48:45;100170.63;;;-5.05;nan
63287;BME280;49410;55.708;37.522;2022-11-25T02:51:12;100184.50;;;-4.95;nan
63287;BME280;49410;55.708;37.522;2022-11-25T02:53:39;100180.50;;;-5.07;nan
63287;BME280;49410;55.708;37.522;2022-11-25T02:56:05;100171.63;;;-5.08;nan
63287;BME280;49410;55.708;37.522;2022-11-25T02:58:31;100191.63;;;-4.96;nan
63287;BME280;49410;55.708;37.522;2022-11-25T03:00:56;100195.00;;;-4.91;nan
63287;BME280;49410;55.708;37.522;2022-11-25T03:03:22;100193.94;;;-4.87;nan
63287;BME280;49410;55.708;37.522;2022-11-25T03:05:47;100210.19;;;-4.93;nan
63287;BME280;49410;55.708;37.522;2022-11-25T03:08:13;100210.44;;;-4.99;nan
63287;BME280;49410;55.708;37.522;2022-11-25T03:10:38;100212.78;;;-4.91;nan
63287;BME280;49410;55.708;37.522;2022-11-25T03:13:05;100197.22;;;-5.02;nan
63287;BME280;49410;55.708;37.522;2022-11-25T03:15:30;100185.25;;;-5.16;nan
63287;BME280;49410;55.708;37.522;2022-11-25T03:17:56;100215.31;;;-5.10;nan
63287;BME280;49410;55.708;37.522;2022-11-25T03:20:21;100216.16;;;-5.10;nan
63287;BME280;49410;55.708;37.522;2022-11-25T03:22:47;100224.16;;;-5.10;nan
63287;BME280;49410;55.708;37.522;2022-11-25T03:25:13;100217.44;;;-5.20;nan
63287;BME280;49410;55.708;37.522;2022-11-25T03:27:40;100224.56;;;-5.21;nan
63287;BME280;49410;55.708;37.522;2022-11-25T03:30:13;100231.34;;;-5.12;nan
63287;BME280;49410;55.708;37.522;2022-11-25T03:32:39;100227.47;;;-5.03;nan
63287;BME280;49410;55.708;37.522;2022-11-25T03:35:04;100233.84;;;-5.07;nan
63287;BME280;49410;55.708;37.522;2022-11-25T03:37:30;100242.44;;;-4.99;nan
63287;BME280;49410;55.708;37.522;2022-11-25T03:39:55;100236.13;;;-4.96;nan
63287;BME280;49410;55.708;37.522;2022-11-25T03:42:21;100241.50;;;-4.98;nan
63287;BME280;49410;55.708;37.522;2022-11-25T03:44:46;100244.16;;;-4.98;nan
63287;BME280;49410;55.708;37.522;2022-11-25T03:47:12;100241.66;;;-5.03;nan
63287;BME280;49410;55.708;37.522;2022-11-25T03:49:37;100256.34;;;-5.15;nan
63287;BME280;49410;55.708;37.522;2022-11-25T03:52:03;100256.34;;;-5.15;nan
63287;BME280;49410;55.708;37.522;2022-11-25T03:54:28;100248.00;;;-5.05;nan
63287;BME280;49410;55.708;37.522;2022-11-25T03:56:54;100259.16;;;-4.94;nan
63287;BME280;49410;55.708;37.522;2022-11-25T03:59:19;100239.97;;;-5.04;nan
63287;BME280;49410;55.708;37.522;2022-11-25T04:01:45;100263.31;;;-4.87;nan
63287;BME280;49410;55.708;37.522;2022-11-25T04:04:10;100245.06;;;-4.97;nan
63287;BME280;49410;55.708;37.522;2022-11-25T04:06:35;100256.75;;;-5.02;nan
63287;BME280;49410;55.708;37.522;2022-11-25T04:09:04;100250.63;;;-5.04;nan
63287;BME280;49410;55.708;37.522;2022-11-25T04:15:05;100256.56;;;-4.97;nan
63287;BME280;49410;55.708;37.522;2022-11-25T04:17:31;100242.16;;;-5.15;nan
63287;BME280;49410;55.708;37.522;2022-11-25T04:19:56;100262.81;;;-4.96;nan
63287;BME280;49410;55.708;37.522;2022-11-25T04:22:22;100253.00;;;-4.96;nan
63287;BME280;49410;55.708;37.522;2022-11-25T04:24:47;100266.72;;;-4.83;nan
63287;BME280;49410;55.708;37.522;2022-11-25T04:27:13;100271.69;;;-4.72;nan
63287;BME280;49410;55.708;37.522;2022-11-25T04:29:38;100239.38;;;-4.88;nan
63287;BME280;49410;55.708;37.522;2022-11-25T04:32:04;100275.75;;;-4.62;nan
63287;BME280;49410;55.708;37.522;2022-11-25T04:34:29;100261.09;;;-4.75;nan
63287;BME280;49410;55.708;37.522;2022-11-25T04:36:55;100272.53;;;-4.72;nan
63287;BME280;49410;55.708;37.522;2022-11-25T04:39:20;100276.84;;;-4.68;nan
63287;BME280;49410;55.708;37.522;2022-11-25T04:41:45;100275.44;;;-4.78;nan
63287;BME280;49410;55.708;37.522;2022-11-25T04:44:11;100265.63;;;-4.77;nan
63287;BME280;49410;55.708;37.522;2022-11-25T04:46:37;100275.03;;;-4.67;nan
63287;BME280;49410;55.708;37.522;2022-11-25T04:49:04;100272.53;;;-4.72;nan
63287;BME280;49410;55.708;37.522;2022-11-25T04:51:29;100279.50;;;-4.68;nan
63287;BME280;49410;55.708;37.522;2022-11-25T04:53:56;100249.47;;;-4.96;nan
63287;BME280;49410;55.708;37.522;2022-11-25T04:56:21;100273.34;;;-4.70;nan
63287;BME280;49410;55.708;37.522;2022-11-25T04:58:47;100264.88;;;-4.81;nan
63287;BME280;49410;55.708;37.522;2022-11-25T05:01:31;100271.22;;;-4.84;nan
63287;BME280;49410;55.708;37.522;2022-11-25T05:03:56;100278.88;;;-4.74;nan
63287;BME280;49410;55.708;37.522;2022-11-25T05:06:22;100279.13;;;-4.80;nan
63287;BME280;49410;55.708;37.522;2022-11-25T05:08:48;100282.06;;;-4.88;nan
63287;BME280;49410;55.708;37.522;2022-11-25T05:11:14;100275.72;;;-4.86;nan
63287;BME280;49410;55.708;37.522;2022-11-25T05:13:39;100262.91;;;-5.00;nan
63287;BME280;49410;55.708;37.522;2022-11-25T05:16:05;100268.72;;;-4.88;nan
63287;BME280;49410;55.708;37.522;2022-11-25T05:18:31;100256.31;;;-4.89;nan
63287;BME280;49410;55.708;37.522;2022-11-25T05:21:00;100281.44;;;-4.71;nan
63287;BME280;49410;55.708;37.522;2022-11-25T05:23:27;100267.56;;;-4.81;nan
63287;BME280;49410;55.708;37.522;2022-11-25T05:25:58;100273.63;;;-4.77;nan
63287;BME280;49410;55.708;37.522;2022-11-25T05:28:23;100263.78;;;-4.75;nan
63287;BME280;49410;55.708;37.522;2022-11-25T05:30:48;100273.53;;;-4.74;nan
63287;BME280;49410;55.708;37.522;2022-11-25T05:33:14;100288.63;;;-4.73;nan
63287;BME280;49410;55.708;37.522;2022-11-25T05:35:39;100285.59;;;-4.64;nan
63287;BME280;49410;55.708;37.522;2022-11-25T05:38:05;100286.06;;;-4.76;nan
63287;BME280;49410;55.708;37.522;2022-11-25T05:40:30;100296.28;;;-4.64;nan
63287;BME280;49410;55.708;37.522;2022-11-25T05:42:58;100296.38;;;-4.67;nan
63287;BME280;49410;55.708;37.522;2022-11-25T05:45:24;100285.94;;;-4.73;nan
63287;BME280;49410;55.708;37.522;2022-11-25T05:47:49;100301.28;;;-4.78;nan
63287;BME280;49410;55.708;37.522;2022-11-25T05:50:14;100292.50;;;-4.82;nan
63287;BME280;49410;55.708;37.522;2022-11-25T05:52:40;100313.50;;;-4.73;nan
63287;BME280;49410;55.708;37.522;2022-11-25T05:55:06;100296.69;;;-4.75;nan
63287;BME280;49410;55.708;37.522;2022-11-25T05:57:32;100301.44;;;-4.83;nan
63287;BME280;49410;55.708;37.522;2022-11-25T05:59:57;100304.75;;;-4.76;nan
63287;BME280;49410;55.708;37.522;2022-11-25T06:02:22;100308.41;;;-4.79;nan
63287;BME280;49410;55.708;37.522;2022-11-25T06:04:48;100307.06;;;-4.67;nan
63287;BME280;49410;55.708;37.522;2022-11-25T06:07:13;100283.47;;;-4.78;nan
63287;BME280;49410;55.708;37.522;2022-11-25T06:09:38;100311.25;;;-4.60;nan
63287;BME280;49410;55.708;37.522;2022-11-25T06:12:04;100311.00;;;-4.54;nan
63287;BME280;49410;55.708;37.522;2022-11-25T06:14:29;100308.94;;;-4.69;nan
63287;BME280;49410;55.708;37.522;2022-11-25T06:16:55;100316.94;;;-4.69;nan
63287;BME280;49410;55.708;37.522;2022-11-25T06:19:20;100309.72;;;-4.67;nan
63287;BME280;49410;55.708;37.522;2022-11-25T06:21:46;100319.63;;;-4.69;nan
63287;BME280;49410;55.708;37.522;2022-11-25T06:24:12;100317.81;;;-4.69;nan
63287;BME280;49410;55.708;37.522;2022-11-25T06:26:37;100328.47;;;-4.69;nan
63287;BME280;49410;55.708;37.522;2022-11-25T06:29:02;100342.47;;;-4.62;nan
63287;BME280;49410;55.708;37.522;2022-11-25T06:31:28;100344.41;;;-4.65;nan
63287;BME280;49410;55.708;37.522;2022-11-25T06:33:53;100331.97;;;-4.66;nan
63287;BME280;49410;55.708;37.522;2022-11-25T06:36:19;100352.34;;;-4.64;nan
63287;BME280;49410;55.708;37.522;2022-11-25T06:38:50;100337.44;;;-4.95;nan
63287;BME280;49410;55.708;37.522;2022-11-25T06:41:16;100348.72;;;-4.87;nan
63287;BME280;49410;55.708;37.522;2022-11-25T06:43:41;100343.78;;;-4.97;nan
63287;BME280;49410;55.708;37.522;2022-11-25T06:46:12;100340.94;;;-4.93;nan
63287;BME280;49410;55.708;37.522;2022-11-25T06:48:38;100341.69;;;-4.89;nan
63287;BME280;49410;55.708;37.522;2022-11-25T06:51:05;100346.03;;;-4.87;nan
63287;BME280;49410;55.708;37.522;2022-11-25T06:53:32;100332.84;;;-4.90;nan
63287;BME280;49410;55.708;37.522;2022-11-25T06:58:28;100339.84;;;-4.87;nan
63287;BME280;49410;55.708;37.522;2022-11-25T07:01:00;100340.31;;;-4.76;nan
63287;BME280;49410;55.708;37.522;2022-11-25T07:03:26;100341.72;;;-4.65;nan
63287;BME280;49410;55.708;37.522;2022-11-25T07:05:51;100362.25;;;-4.68;nan
63287;BME280;49410;55.708;37.522;2022-11-25T07:08:19;100360.50;;;-4.69;nan
63287;BME280;49410;55.708;37.522;2022-11-25T07:10:46;100367.00;;;-4.76;nan
63287;BME280;49410;55.708;37.522;2022-11-25T07:13:11;100364.00;;;-4.66;nan
63287;BME280;49410;55.708;37.522;2022-11-25T07:15:37;100366.78;;;-4.70;nan
63287;BME280;49410;55.708;37.522;2022-11-25T07:18:02;100369.56;;;-4.73;nan
63287;BME280;49410;55.708;37.522;2022-11-25T07:20:28;100334.34;;;-4.82;nan
63287;BME280;49410;55.708;37.522;2022-11-25T07:22:54;100377.88;;;-4.57;nan
63287;BME280;49410;55.708;37.522;2022-11-25T07:25:19;100372.31;;;-4.50;nan
63287;BME280;49410;55.708;37.522;2022-11-25T07:27:44;100366.84;;;-4.47;nan
63287;BME280;49410;55.708;37.522;2022-11-25T07:30:10;100378.78;;;-4.58;nan
63287;BME280;49410;55.708;37.522;2022-11-25T07:32:35;100377.13;;;-4.60;nan
63287;BME280;49410;55.708;37.522;2022-11-25T07:35:01;100375.78;;;-4.72;nan
63287;BME280;49410;55.708;37.522;2022-11-25T07:37:26;100384.59;;;-4.70;nan
63287;BME280;49410;55.708;37.522;2022-11-25T07:39:52;100364.94;;;-4.68;nan
63287;BME280;49410;55.708;37.522;2022-11-25T07:42:17;100380.78;;;-4.63;nan
63287;BME280;49410;55.708;37.522;2022-11-25T07:44:42;100376.84;;;-4.53;nan
63287;BME280;49410;55.708;37.522;2022-11-25T07:47:08;100383.63;;;-4.68;nan
63287;BME280;49410;55.708;37.522;2022-11-25T07:49:33;100388.84;;;-4.64;nan
63287;BME280;49410;55.708;37.522;2022-11-25T07:51:59;100384.59;;;-4.70;nan
63287;BME280;49410;55.708;37.522;2022-11-25T07:54:26;100378.56;;;-4.75;nan
63287;BME280;49410;55.708;37.522;2022-11-25T07:56:52;100386.56;;;-4.75;nan
63287;BME280;49410;55.708;37.522;2022-11-25T07:59:19;100384.81;;;-4.76;nan
63287;BME280;49410;55.708;37.522;2022-11-25T08:01:47;100376.88;;;-4.78;nan
63287;BME280;49410;55.708;37.522;2022-11-25T08:04:13;100368.78;;;-4.76;nan
63287;BME280;49410;55.708;37.522;2022-11-25T08:06:42;100386.13;;;-4.63;nan
63287;BME280;49410;55.708;37.522;2022-11-25T08:09:09;100395.94;;;-4.63;nan
63287;BME280;49410;55.708;37.522;2022-11-25T08:11:35;100389.44;;;-4.56;nan
63287;BME280;49410;55.708;37.522;2022-11-25T08:14:01;100408.78;;;-4.49;nan
63287;BME280;49410;55.708;37.522;2022-11-25T08:16:28;100390.47;;;-4.60;nan
63287;BME280;49410;55.708;37.522;2022-11-25T08:18:59;100393.19;;;-4.62;nan
63287;BME280;49410;55.708;37.522;2022-11-25T08:21:25;100374.28;;;-4.79;nan
63287;BME280;49410;55.708;37.522;2022-11-25T08:23:51;100412.41;;;-4.52;nan
63287;BME280;49410;55.708;37.522;2022-11-25T08:26:20;100390.63;;;-4.65;nan
63287;BME280;49410;55.708;37.522;2022-11-25T08:28:47;100403.44;;;-4.49;nan
63287;BME280;49410;55.708;37.522;2022-11-25T08:31:18;100400.59;;;-4.45;nan
63287;BME280;49410;55.708;37.522;2022-11-25T08:33:44;100406.97;;;-4.49;nan
63287;BME280;49410;55.708;37.522;2022-11-25T08:36:10;100410.22;;;-4.64;nan
63287;BME280;49410;55.708;37.522;2022-11-25T08:38:37;100413.03;;;-4.44;nan
63287;BME280;49410;55.708;37.522;2022-11-25T08:41:20;100384.53;;;-4.69;nan
63287;BME280;49410;55.708;37.522;2022-11-25T08:43:47;100414.22;;;-4.53;nan
63287;BME280;49410;55.708;37.522;2022-11-25T08:46:16;100415.63;;;-4.42;nan
63287;BME280;49410;55.708;37.522;2022-11-25T08:48:42;100399.28;;;-4.58;nan
63287;BME280;49410;55.708;37.522;2022-11-25T08:51:09;100411.09;;;-4.40;nan
63287;BME280;49410;55.708;37.522;2022-11-25T08:53:36;100408.94;;;-4.54;nan
63287;BME280;49410;55.708;37.522;2022-11-25T08:56:01;100405.50;;;-4.58;nan
63287;BME280;49410;55.708;37.522;2022-11-25T08:58:27;100415.88;;;-4.48;nan
63287;BME280;49410;55.708;37.522;2022-11-25T09:00:52;100413.03;;;-4.44;nan
63287;BME280;49410;55.708;37.522;2022-11-25T09:03:17;100426.97;;;-4.35;nan
63287;BME280;49410;55.708;37.522;2022-11-25T09:05:43;100412.88;;;-4.41;nan
63287;BME280;49410;55.708;37.522;2022-11-25T09:08:10;100426.81;;;-4.56;nan
63287;BME280;49410;55.708;37.522;2022-11-25T09:10:37;100408.47;;;-4.65;nan
63287;BME280;49410;55.708;37.522;2022-11-25T09:13:03;100408.34;;;-4.62;nan
63287;BME280;49410;55.708;37.522;2022-11-25T09:15:29;100425.81;;;-4.54;nan
63287;BME280;49410;55.708;37.522;2022-11-25T09:18:02;100425.06;;;-4.57;nan
63287;BME280;49410;55.708;37.522;2022-11-25T09:20:28;100431.25;;;-4.57;nan
63287;BME280;49410;55.708;37.522;2022-11-25T09:22:53;100428.72;;;-4.60;nan
63287;BME280;49410;55.708;37.522;2022-11-25T09:25:20;100430.50;;;-4.60;nan
63287;BME280;49410;55.708;37.522;2022-11-25T09:27:46;100424.41;;;-4.64;nan
63287;BME280;49410;55.708;37.522;2022-11-25T09:30:12;100422.22;;;-4.53;nan
63287;BME280;49410;55.708;37.522;2022-11-25T09:32:38;100417.72;;;-4.50;nan
63287;BME280;49410;55.708;37.522;2022-11-25T09:35:03;100419.22;;;-4.43;nan
63287;BME280;49410;55.708;37.522;2022-11-25T09:37:29;100413.03;;;-4.44;nan
63287;BME280;49410;55.708;37.522;2022-11-25T09:39:54;100418.84;;;-4.32;nan
63287;BME280;49410;55.708;37.522;2022-11-25T09:42:24;100421.97;;;-4.45;nan
63287;BME280;49410;55.708;37.522;2022-11-25T09:46:18;100409.28;;;-4.40;nan
63287;BME280;49410;55.708;37.522;2022-11-25T09:48:59;100403.78;;;-4.35;nan
63287;BME280;49410;55.708;37.522;2022-11-25T09:54:21;100401.19;;;-4.37;nan
63287;BME280;49410;55.708;37.522;2022-11-25T10:02:44;100416.31;;;-4.13;nan
63287;BME280;49410;55.708;37.522;2022-11-25T10:05:22;100416.44;;;-4.40;nan
63287;BME280;49410;55.708;37.522;2022-11-25T10:07:55;100418.53;;;-4.48;nan
63287;BME280;49410;55.708;37.522;2022-11-25T10:10:29;100411.13;;;-4.65;nan
63287;BME280;49410;55.708;37.522;2022-11-25T10:21:37;100432.81;;;-4.75;nan
63287;BME280;49410;55.708;37.522;2022-11-25T10:24:03;100434.28;;;-4.66;nan
63287;BME280;49410;55.708;37.522;2022-11-25T10:26:35;100428.66;;;-4.58;nan
63287;BME280;49410;55.708;37.522;2022-11-25T10:29:26;100441.84;;;-4.54;nan
63287;BME280;49410;55.708;37.522;2022-11-25T10:32:27;100452.63;;;-4.57;nan
63287;BME280;49410;55.708;37.522;2022-11-25T10:35:00;100441.78;;;-4.52;nan
63287;BME280;49410;55.708;37.522;2022-11-25T10:37:39;100451.66;;;-4.54;nan
63287;BME280;49410;55.708;37.522;2022-11-25T10:40:16;100451.59;;;-4.53;nan
63287;BME280;49410;55.708;37.522;2022-11-25T10:42:42;100449.38;;;-4.65;nan
63287;BME280;49410;55.708;37.522;2022-11-25T10:45:09;100443.09;;;-4.64;nan
63287;BME280;49410;55.708;37.522;2022-11-25T10:53:12;100450.25;;;-4.64;nan
63287;BME280;49410;55.708;37.522;2022-11-25T10:56:06;100467.72;;;-4.56;nan
63287;BME280;49410;55.708;37.522;2022-11-25T10:58:35;100461.88;;;-4.67;nan
63287;BME280;49410;55.708;37.522;2022-11-25T11:01:19;100481.03;;;-4.54;nan
63287;BME280;49410;55.708;37.522;2022-11-25T11:03:50;100459.84;;;-4.59;nan
63287;BME280;49410;55.708;37.522;2022-11-25T11:06:40;100457.38;;;-4.65;nan
63287;BME280;49410;55.708;37.522;2022-11-25T11:11:55;100462.34;;;-4.54;nan
63287;BME280;49410;55.708;37.522;2022-11-25T11:14:20;100469.31;;;-4.50;nan
63287;BME280;49410;55.708;37.522;2022-11-25T11:16:53;100458.78;;;-4.55;nan
63287;BME280;49410;55.708;37.522;2022-11-25T11:19:25;100461.53;;;-4.56;nan
63287;BME280;49410;55.708;37.522;2022-11-25T11:21:52;100463.47;;;-4.61;nan
63287;BME280;49410;55.708;37.522;2022-11-25T11:24:31;100469.56;;;-4.58;nan
63287;BME280;49410;55.708;37.522;2022-11-25T11:27:15;100449.34;;;-4.63;nan
63287;BME280;49410;55.708;37.522;2022-11-25T11:29:43;100474.16;;;-4.61;nan
63287;BME280;49410;55.708;37.522;2022-11-25T11:32:23;100475.31;;;-4.69;nan
63287;BME280;49410;55.708;37.522;2022-11-25T11:37:44;100480.53;;;-4.65;nan
63287;BME280;49410;55.708;37.522;2022-11-25T11:58:19;100497.69;;;-4.73;nan
63287;BME280;49410;55.708;37.522;2022-11-25T12:01:10;100492.47;;;-4.76;nan
63287;BME280;49410;55.708;37.522;2022-11-25T12:03:42;100508.06;;;-4.63;nan
63287;BME280;49410;55.708;37.522;2022-11-25T12:06:10;100497.97;;;-4.80;nan
63287;BME280;49410;55.708;37.522;2022-11-25T12:08:49;100494.25;;;-4.76;nan
63287;BME280;49410;55.708;37.522;2022-11-25T12:11:26;100495.13;;;-4.76;nan
63287;BME280;49410;55.708;37.522;2022-11-25T12:14:04;100518.84;;;-4.66;nan
63287;BME280;49410;55.708;37.522;2022-11-25T12:16:53;100518.78;;;-4.65;nan
63287;BME280;49410;55.708;37.522;2022-11-25T12:19:29;100511.66;;;-4.64;nan
63287;BME280;49410;55.708;37.522;2022-11-25T12:22:24;100511.16;;;-4.50;nan
63287;BME280;49410;55.708;37.522;2022-11-25T12:27:26;100502.25;;;-4.49;nan
63287;BME280;49410;55.708;37.522;2022-11-25T12:30:09;100500.69;;;-4.57;nan
63287;BME280;49410;55.708;37.522;2022-11-25T12:35:53;100520.38;;;-4.59;nan
63287;BME280;49410;55.708;37.522;2022-11-25T12:38:35;100533.63;;;-4.56;nan
63287;BME280;49410;55.708;37.522;2022-11-25T12:41:12;100513.19;;;-4.57;nan
63287;BME280;49410;55.708;37.522;2022-11-25T12:43:42;100527.03;;;-4.46;nan
63287;BME280;49410;55.708;37.522;2022-11-25T12:49:00;100522.97;;;-4.58;nan
63287;BME280;49410;55.708;37.522;2022-11-25T12:54:36;100533.94;;;-4.65;nan
63287;BME280;49410;55.708;37.522;2022-11-25T13:14:38;100543.50;;;-4.85;nan
63287;BME280;49410;55.708;37.522;2022-11-25T13:16:52;100543.53;;;-4.87;nan
63287;BME280;49410;55.708;37.522;2022-11-25T13:19:19;100546.84;;;-4.78;nan
63287;BME280;49410;55.708;37.522;2022-11-25T13:22:01;100539.75;;;-4.79;nan
63287;BME280;49410;55.708;37.522;2022-11-25T13:24:31;100560.44;;;-4.86;nan
63287;BME280;49410;55.708;37.522;2022-11-25T13:26:57;100537.25;;;-4.86;nan
63287;BME280;49410;55.708;37.522;2022-11-25T13:31:55;100567.22;;;-4.77;nan
63287;BME280;49410;55.708;37.522;2022-11-25T13:34:25;100565.50;;;-4.78;nan
63287;BME280;49410;55.708;37.522;2022-11-25T13:36:56;100562.88;;;-4.80;nan
63287;BME280;49410;55.708;37.522;2022-11-25T13:39:32;100572.63;;;-4.79;nan
63287;BME280;49410;55.708;37.522;2022-11-25T13:41:59;100568.53;;;-4.89;nan
63287;BME280;49410;55.708;37.522;2022-11-25T13:49:57;100558.75;;;-4.90;nan
63287;BME280;49410;55.708;37.522;2022-11-25T13:52:35;100571.88;;;-4.82;nan
63287;BME280;49410;55.708;37.522;2022-11-25T13:55:34;100570.94;;;-4.81;nan
63287;BME280;49410;55.708;37.522;2022-11-25T13:58:13;100573.91;;;-4.91;nan
63287;BME280;49410;55.708;37.522;2022-11-25T14:01:31;100572.69;;;-4.80;nan
63287;BME280;49410;55.708;37.522;2022-11-25T14:08:31;100553.81;;;-5.03;nan
63287;BME280;49410;55.708;37.522;2022-11-25T14:22:41;100582.03;;;-4.67;nan
63287;BME280;49410;55.708;37.522;2022-11-25T14:25:20;100538.19;;;-4.87;nan
63287;BME280;49410;55.708;37.522;2022-11-25T14:27:49;100580.69;;;-4.54;nan
63287;BME280;49410;55.708;37.522;2022-11-25T14:30:16;100570.91;;;-4.53;nan
63287;BME280;49410;55.708;37.522;2022-11-25T14:32:54;100580.44;;;-4.46;nan
63287;BME280;49410;55.708;37.522;2022-11-25T14:35:36;100573.34;;;-4.47;nan
63287;BME280;49410;55.708;37.522;2022-11-25T14:41:35;100595.03;;;-4.56;nan
63287;BME280;49410;55.708;37.522;2022-11-25T14:44:09;100593.06;;;-4.51;nan
63287;BME280;49410;55.708;37.522;2022-11-25T14:49:59;100573.75;;;-4.59;nan
63287;BME280;49410;55.708;37.522;2022-11-25T14:52:32;100603.03;;;-4.56;nan
63287;BME280;49410;55.708;37.522;2022-11-25T14:55:00;100589.31;;;-4.72;nan
63287;BME280;49410;55.708;37.522;2022-11-25T14:57:31;100576.44;;;-4.86;nan
63287;BME280;49410;55.708;37.522;2022-11-25T15:02:32;100588.84;;;-4.58;nan
63287;BME280;49410;55.708;37.522;2022-11-25T15:05:16;100604.63;;;-4.50;nan
63287;BME280;49410;55.708;37.522;2022-11-25T15:07:51;100589.72;;;-4.58;nan
63287;BME280;49410;55.708;37.522;2022-11-25T15:10:54;100604.56;;;-4.49;nan